sensor_id;sensor_type;location;lat;lon;timestamp;P1;durP1;ratioP1;P2;durP2;ratioP2
71046;SDS011;58703;48.978;8.982;2023-08-20T00:01:21;15.98;;;12.27;;
71046;SDS011;58703;48.978;8.982;2023-08-20T00:03:50;15.20;;;12.57;;
71046;SDS011;58703;48.978;8.982;2023-08-20T00:06:16;17.05;;;12.90;;
71046;SDS011;58703;48.978;8.982;2023-08-20T00:08:42;16.95;;;14.50;;
71046;SDS011;58703;48.978;8.982;2023-08-20T00:11:08;17.77;;;14.13;;
71046;SDS011;58703;48.978;8.982;2023-08-20T00:13:35;22.13;;;14.45;;
71046;SDS011;58703;48.978;8.982;2023-08-20T00:16:00;18.73;;;13.33;;
71046;SDS011;58703;48.978;8.982;2023-08-20T00:18:27;15.43;;;12.50;;
71046;SDS011;58703;48.978;8.982;2023-08-20T00:20:53;15.73;;;12.60;;
71046;SDS011;58703;48.978;8.982;2023-08-20T00:23:19;16.15;;;14.05;;
71046;SDS011;58703;48.978;8.982;2023-08-20T00:25:45;15.67;;;13.77;;
71046;SDS011;58703;48.978;8.982;2023-08-20T00:28:10;17.48;;;14.00;;
71046;SDS011;58703;48.978;8.982;2023-08-20T00:30:36;18.60;;;13.07;;
71046;SDS011;58703;48.978;8.982;2023-08-20T00:33:01;13.05;;;11.13;;
71046;SDS011;58703;48.978;8.982;2023-08-20T00:35:27;22.67;;;11.33;;
71046;SDS011;58703;48.978;8.982;2023-08-20T00:37:53;13.00;;;11.68;;
71046;SDS011;58703;48.978;8.982;2023-08-20T00:40:19;15.43;;;12.00;;
71046;SDS011;58703;48.978;8.982;2023-08-20T00:42:44;13.55;;;12.07;;
71046;SDS011;58703;48.978;8.982;2023-08-20T00:45:10;12.53;;;11.23;;
71046;SDS011;58703;48.978;8.982;2023-08-20T00:47:35;14.23;;;10.93;;
71046;SDS011;58703;48.978;8.982;2023-08-20T00:50:02;15.48;;;10.40;;
71046;SDS011;58703;48.978;8.982;2023-08-20T00:52:34;11.27;;;9.55;;
71046;SDS011;58703;48.978;8.982;2023-08-20T00:55:01;13.48;;;9.32;;
71046;SDS011;58703;48.978;8.982;2023-08-20T00:57:32;10.07;;;8.80;;
71046;SDS011;58703;48.978;8.982;2023-08-20T00:59:58;10.00;;;8.98;;
71046;SDS011;58703;48.978;8.982;2023-08-20T01:02:24;11.27;;;9.50;;
71046;SDS011;58703;48.978;8.982;2023-08-20T01:04:50;15.97;;;9.40;;
71046;SDS011;58703;48.978;8.982;2023-08-20T01:10:13;12.90;;;9.52;;
71046;SDS011;58703;48.978;8.982;2023-08-20T01:12:42;15.77;;;10.07;;
71046;SDS011;58703;48.978;8.982;2023-08-20T01:15:09;13.37;;;9.83;;
71046;SDS011;58703;48.978;8.982;2023-08-20T01:17:40;12.85;;;10.60;;
71046;SDS011;58703;48.978;8.982;2023-08-20T01:20:07;16.15;;;10.43;;
71046;SDS011;58703;48.978;8.982;2023-08-20T01:30:53;12.80;;;10.70;;
71046;SDS011;58703;48.978;8.982;2023-08-20T01:33:22;13.30;;;10.85;;
71046;SDS011;58703;48.978;8.982;2023-08-20T01:35:49;12.68;;;10.82;;
71046;SDS011;58703;48.978;8.982;2023-08-20T01:38:16;17.30;;;11.00;;
71046;SDS011;58703;48.978;8.982;2023-08-20T01:40:41;13.13;;;11.10;;
71046;SDS011;58703;48.978;8.982;2023-08-20T01:43:07;13.75;;;12.00;;
71046;SDS011;58703;48.978;8.982;2023-08-20T01:45:33;14.83;;;12.47;;
71046;SDS011;58703;48.978;8.982;2023-08-20T01:47:59;17.27;;;13.77;;
71046;SDS011;58703;48.978;8.982;2023-08-20T01:50:24;14.50;;;12.80;;
71046;SDS011;58703;48.978;8.982;2023-08-20T01:52:50;16.37;;;13.27;;
71046;SDS011;58703;48.978;8.982;2023-08-20T01:55:15;20.92;;;13.82;;
71046;SDS011;58703;48.978;8.982;2023-08-20T01:57:41;20.00;;;14.53;;
71046;SDS011;58703;48.978;8.982;2023-08-20T02:00:07;20.77;;;15.60;;
71046;SDS011;58703;48.978;8.982;2023-08-20T02:02:33;19.43;;;15.40;;
71046;SDS011;58703;48.978;8.982;2023-08-20T02:04:59;19.17;;;14.82;;
71046;SDS011;58703;48.978;8.982;2023-08-20T02:07:25;24.23;;;15.55;;
71046;SDS011;58703;48.978;8.982;2023-08-20T02:09:51;18.43;;;14.13;;
71046;SDS011;58703;48.978;8.982;2023-08-20T02:12:17;16.40;;;14.45;;
71046;SDS011;58703;48.978;8.982;2023-08-20T02:14:43;17.20;;;15.40;;
71046;SDS011;58703;48.978;8.982;2023-08-20T02:17:08;18.23;;;15.63;;
71046;SDS011;58703;48.978;8.982;2023-08-20T02:19:34;20.43;;;15.17;;
71046;SDS011;58703;48.978;8.982;2023-08-20T02:21:59;18.27;;;15.65;;
71046;SDS011;58703;48.978;8.982;2023-08-20T02:24:25;17.93;;;14.70;;
71046;SDS011;58703;48.978;8.982;2023-08-20T02:26:50;20.10;;;14.87;;
71046;SDS011;58703;48.978;8.982;2023-08-20T02:29:16;19.10;;;14.60;;
71046;SDS011;58703;48.978;8.982;2023-08-20T02:31:42;17.07;;;12.90;;
71046;SDS011;58703;48.978;8.982;2023-08-20T02:34:07;16.15;;;12.13;;
71046;SDS011;58703;48.978;8.982;2023-08-20T02:36:33;19.70;;;12.43;;
71046;SDS011;58703;48.978;8.982;2023-08-20T02:38:59;16.43;;;13.23;;
71046;SDS011;58703;48.978;8.982;2023-08-20T02:41:25;13.75;;;11.70;;
71046;SDS011;58703;48.978;8.982;2023-08-20T02:43:50;16.07;;;11.60;;
71046;SDS011;58703;48.978;8.982;2023-08-20T02:46:16;14.50;;;10.73;;
71046;SDS011;58703;48.978;8.982;2023-08-20T02:48:41;11.65;;;10.32;;
71046;SDS011;58703;48.978;8.982;2023-08-20T02:51:07;11.57;;;9.47;;
71046;SDS011;58703;48.978;8.982;2023-08-20T02:53:32;11.50;;;10.30;;
71046;SDS011;58703;48.978;8.982;2023-08-20T02:55:59;14.15;;;10.63;;
71046;SDS011;58703;48.978;8.982;2023-08-20T02:58:24;12.35;;;9.85;;
71046;SDS011;58703;48.978;8.982;2023-08-20T03:00:50;14.23;;;10.48;;
71046;SDS011;58703;48.978;8.982;2023-08-20T03:03:16;10.63;;;9.53;;
71046;SDS011;58703;48.978;8.982;2023-08-20T03:05:41;11.65;;;9.15;;
71046;SDS011;58703;48.978;8.982;2023-08-20T03:08:07;10.93;;;9.43;;
71046;SDS011;58703;48.978;8.982;2023-08-20T03:10:34;13.73;;;9.90;;
71046;SDS011;58703;48.978;8.982;2023-08-20T03:13:00;11.87;;;9.17;;
71046;SDS011;58703;48.978;8.982;2023-08-20T03:15:27;11.45;;;9.02;;
71046;SDS011;58703;48.978;8.982;2023-08-20T03:17:53;13.90;;;9.95;;
71046;SDS011;58703;48.978;8.982;2023-08-20T03:20:19;16.20;;;9.43;;
71046;SDS011;58703;48.978;8.982;2023-08-20T03:22:44;10.73;;;9.73;;
71046;SDS011;58703;48.978;8.982;2023-08-20T03:25:10;14.90;;;9.60;;
71046;SDS011;58703;48.978;8.982;2023-08-20T03:27:35;11.43;;;9.37;;
71046;SDS011;58703;48.978;8.982;2023-08-20T03:30:01;9.65;;;8.57;;
71046;SDS011;58703;48.978;8.982;2023-08-20T03:32:27;12.90;;;9.10;;
71046;SDS011;58703;48.978;8.982;2023-08-20T03:34:53;12.02;;;10.77;;
71046;SDS011;58703;48.978;8.982;2023-08-20T03:37:19;15.90;;;11.27;;
71046;SDS011;58703;48.978;8.982;2023-08-20T03:39:44;14.98;;;11.68;;
71046;SDS011;58703;48.978;8.982;2023-08-20T03:42:11;15.50;;;10.03;;
71046;SDS011;58703;48.978;8.982;2023-08-20T03:44:37;10.90;;;9.35;;
71046;SDS011;58703;48.978;8.982;2023-08-20T03:47:02;14.33;;;9.50;;
71046;SDS011;58703;48.978;8.982;2023-08-20T03:49:28;13.27;;;11.30;;
71046;SDS011;58703;48.978;8.982;2023-08-20T03:51:53;13.90;;;10.90;;
71046;SDS011;58703;48.978;8.982;2023-08-20T03:54:19;13.83;;;10.67;;
71046;SDS011;58703;48.978;8.982;2023-08-20T03:56:44;13.10;;;9.90;;
71046;SDS011;58703;48.978;8.982;2023-08-20T03:59:10;11.73;;;9.17;;
71046;SDS011;58703;48.978;8.982;2023-08-20T04:01:36;11.15;;;9.88;;
71046;SDS011;58703;48.978;8.982;2023-08-20T04:04:03;10.82;;;9.73;;
71046;SDS011;58703;48.978;8.982;2023-08-20T04:06:29;12.45;;;9.00;;
71046;SDS011;58703;48.978;8.982;2023-08-20T04:08:54;11.33;;;9.60;;
71046;SDS011;58703;48.978;8.982;2023-08-20T04:11:20;10.93;;;9.30;;
71046;SDS011;58703;48.978;8.982;2023-08-20T04:13:45;14.97;;;8.77;;
71046;SDS011;58703;48.978;8.982;2023-08-20T04:16:12;10.47;;;9.40;;
71046;SDS011;58703;48.978;8.982;2023-08-20T04:18:39;10.70;;;9.38;;
71046;SDS011;58703;48.978;8.982;2023-08-20T04:21:04;10.75;;;9.05;;
71046;SDS011;58703;48.978;8.982;2023-08-20T04:23:30;12.50;;;10.10;;
71046;SDS011;58703;48.978;8.982;2023-08-20T04:25:56;14.65;;;11.57;;
71046;SDS011;58703;48.978;8.982;2023-08-20T04:28:21;15.23;;;9.70;;
71046;SDS011;58703;48.978;8.982;2023-08-20T04:30:47;14.37;;;10.60;;
71046;SDS011;58703;48.978;8.982;2023-08-20T04:33:14;11.63;;;10.02;;
71046;SDS011;58703;48.978;8.982;2023-08-20T04:35:40;11.93;;;9.80;;
71046;SDS011;58703;48.978;8.982;2023-08-20T04:38:05;12.63;;;9.53;;
71046;SDS011;58703;48.978;8.982;2023-08-20T04:40:33;11.63;;;10.38;;
71046;SDS011;58703;48.978;8.982;2023-08-20T04:42:58;14.60;;;10.80;;
71046;SDS011;58703;48.978;8.982;2023-08-20T04:45:24;13.50;;;11.27;;
71046;SDS011;58703;48.978;8.982;2023-08-20T04:47:49;18.37;;;12.10;;
71046;SDS011;58703;48.978;8.982;2023-08-20T04:50:15;16.53;;;11.50;;
71046;SDS011;58703;48.978;8.982;2023-08-20T04:52:40;12.13;;;10.40;;
71046;SDS011;58703;48.978;8.982;2023-08-20T04:55:06;12.57;;;9.37;;
71046;SDS011;58703;48.978;8.982;2023-08-20T04:57:33;11.75;;;10.38;;
71046;SDS011;58703;48.978;8.982;2023-08-20T04:59:59;10.93;;;9.60;;
71046;SDS011;58703;48.978;8.982;2023-08-20T05:02:24;10.03;;;8.67;;
71046;SDS011;58703;48.978;8.982;2023-08-20T05:04:50;10.73;;;9.10;;
71046;SDS011;58703;48.978;8.982;2023-08-20T05:07:16;13.98;;;10.00;;
71046;SDS011;58703;48.978;8.982;2023-08-20T05:09:41;14.47;;;11.13;;
71046;SDS011;58703;48.978;8.982;2023-08-20T05:12:07;15.88;;;11.35;;
71046;SDS011;58703;48.978;8.982;2023-08-20T05:14:33;15.37;;;9.50;;
71046;SDS011;58703;48.978;8.982;2023-08-20T05:16:58;12.18;;;9.40;;
71046;SDS011;58703;48.978;8.982;2023-08-20T05:19:24;12.97;;;9.57;;
71046;SDS011;58703;48.978;8.982;2023-08-20T05:21:49;9.43;;;8.52;;
71046;SDS011;58703;48.978;8.982;2023-08-20T05:24:15;13.37;;;8.87;;
71046;SDS011;58703;48.978;8.982;2023-08-20T05:26:41;10.82;;;9.68;;
71046;SDS011;58703;48.978;8.982;2023-08-20T05:29:06;9.00;;;8.10;;
71046;SDS011;58703;48.978;8.982;2023-08-20T05:31:33;8.80;;;7.90;;
71046;SDS011;58703;48.978;8.982;2023-08-20T05:33:59;8.85;;;7.82;;
71046;SDS011;58703;48.978;8.982;2023-08-20T05:36:24;9.53;;;8.63;;
71046;SDS011;58703;48.978;8.982;2023-08-20T05:38:50;9.30;;;8.35;;
71046;SDS011;58703;48.978;8.982;2023-08-20T05:41:15;8.30;;;7.57;;
71046;SDS011;58703;48.978;8.982;2023-08-20T05:43:41;9.37;;;7.93;;
71046;SDS011;58703;48.978;8.982;2023-08-20T05:46:07;11.10;;;7.65;;
71046;SDS011;58703;48.978;8.982;2023-08-20T05:48:32;9.53;;;7.60;;
71046;SDS011;58703;48.978;8.982;2023-08-20T05:50:58;8.93;;;6.57;;
71046;SDS011;58703;48.978;8.982;2023-08-20T05:53:23;9.32;;;8.00;;
71046;SDS011;58703;48.978;8.982;2023-08-20T05:55:49;10.00;;;8.00;;
71046;SDS011;58703;48.978;8.982;2023-08-20T05:58:14;8.52;;;7.55;;
71046;SDS011;58703;48.978;8.982;2023-08-20T06:00:40;8.90;;;7.68;;
71046;SDS011;58703;48.978;8.982;2023-08-20T06:03:06;9.37;;;7.90;;
71046;SDS011;58703;48.978;8.982;2023-08-20T06:05:33;11.85;;;7.78;;
71046;SDS011;58703;48.978;8.982;2023-08-20T06:08:01;9.60;;;8.13;;
71046;SDS011;58703;48.978;8.982;2023-08-20T06:10:27;11.93;;;8.47;;
71046;SDS011;58703;48.978;8.982;2023-08-20T06:12:52;9.55;;;8.38;;
71046;SDS011;58703;48.978;8.982;2023-08-20T06:15:18;8.82;;;7.72;;
71046;SDS011;58703;48.978;8.982;2023-08-20T06:17:44;8.97;;;7.77;;
71046;SDS011;58703;48.978;8.982;2023-08-20T06:20:10;11.23;;;8.32;;
71046;SDS011;58703;48.978;8.982;2023-08-20T06:22:37;8.93;;;8.02;;
71046;SDS011;58703;48.978;8.982;2023-08-20T06:25:03;9.40;;;7.30;;
71046;SDS011;58703;48.978;8.982;2023-08-20T06:27:30;9.55;;;7.88;;
71046;SDS011;58703;48.978;8.982;2023-08-20T06:29:55;9.25;;;8.25;;
71046;SDS011;58703;48.978;8.982;2023-08-20T06:32:21;8.30;;;7.40;;
71046;SDS011;58703;48.978;8.982;2023-08-20T06:34:47;12.90;;;7.28;;
71046;SDS011;58703;48.978;8.982;2023-08-20T06:37:12;8.02;;;7.22;;
71046;SDS011;58703;48.978;8.982;2023-08-20T06:39:38;8.77;;;7.83;;
71046;SDS011;58703;48.978;8.982;2023-08-20T06:42:03;8.82;;;6.95;;
71046;SDS011;58703;48.978;8.982;2023-08-20T06:44:29;7.57;;;6.77;;
71046;SDS011;58703;48.978;8.982;2023-08-20T06:46:54;8.37;;;7.27;;
71046;SDS011;58703;48.978;8.982;2023-08-20T06:49:20;8.85;;;7.63;;
71046;SDS011;58703;48.978;8.982;2023-08-20T06:51:45;12.90;;;6.80;;
71046;SDS011;58703;48.978;8.982;2023-08-20T06:54:11;9.73;;;8.67;;
71046;SDS011;58703;48.978;8.982;2023-08-20T06:56:37;10.27;;;6.82;;
71046;SDS011;58703;48.978;8.982;2023-08-20T06:59:02;8.50;;;7.60;;
71046;SDS011;58703;48.978;8.982;2023-08-20T07:01:28;8.82;;;7.90;;
71046;SDS011;58703;48.978;8.982;2023-08-20T07:03:54;10.70;;;8.32;;
71046;SDS011;58703;48.978;8.982;2023-08-20T07:06:20;12.75;;;8.63;;
71046;SDS011;58703;48.978;8.982;2023-08-20T07:08:45;9.17;;;7.50;;
71046;SDS011;58703;48.978;8.982;2023-08-20T07:11:11;11.18;;;8.68;;
71046;SDS011;58703;48.978;8.982;2023-08-20T07:13:36;10.43;;;7.40;;
71046;SDS011;58703;48.978;8.982;2023-08-20T07:16:02;8.60;;;7.37;;
71046;SDS011;58703;48.978;8.982;2023-08-20T07:18:28;10.80;;;7.75;;
71046;SDS011;58703;48.978;8.982;2023-08-20T07:20:54;11.40;;;8.33;;
71046;SDS011;58703;48.978;8.982;2023-08-20T07:23:20;9.45;;;8.43;;
71046;SDS011;58703;48.978;8.982;2023-08-20T07:25:47;11.55;;;9.02;;
71046;SDS011;58703;48.978;8.982;2023-08-20T07:28:17;9.60;;;8.60;;
71046;SDS011;58703;48.978;8.982;2023-08-20T07:30:51;11.23;;;8.38;;
71046;SDS011;58703;48.978;8.982;2023-08-20T07:33:17;8.63;;;7.83;;
71046;SDS011;58703;48.978;8.982;2023-08-20T07:35:42;11.32;;;8.00;;
71046;SDS011;58703;48.978;8.982;2023-08-20T07:38:08;8.55;;;7.28;;
71046;SDS011;58703;48.978;8.982;2023-08-20T07:40:34;8.33;;;7.27;;
71046;SDS011;58703;48.978;8.982;2023-08-20T07:42:59;10.65;;;7.05;;
71046;SDS011;58703;48.978;8.982;2023-08-20T07:45:25;8.73;;;6.93;;
71046;SDS011;58703;48.978;8.982;2023-08-20T07:47:50;8.43;;;7.00;;
71046;SDS011;58703;48.978;8.982;2023-08-20T07:50:16;8.87;;;7.73;;
71046;SDS011;58703;48.978;8.982;2023-08-20T07:52:42;9.30;;;6.63;;
71046;SDS011;58703;48.978;8.982;2023-08-20T07:55:07;9.65;;;7.28;;
71046;SDS011;58703;48.978;8.982;2023-08-20T07:57:33;10.33;;;6.70;;
71046;SDS011;58703;48.978;8.982;2023-08-20T07:59:59;8.95;;;7.60;;
71046;SDS011;58703;48.978;8.982;2023-08-20T08:02:24;8.32;;;7.30;;
71046;SDS011;58703;48.978;8.982;2023-08-20T08:04:50;9.67;;;6.57;;
71046;SDS011;58703;48.978;8.982;2023-08-20T08:07:15;8.50;;;7.33;;
71046;SDS011;58703;48.978;8.982;2023-08-20T08:09:41;10.77;;;7.07;;
71046;SDS011;58703;48.978;8.982;2023-08-20T08:12:06;7.63;;;6.67;;
71046;SDS011;58703;48.978;8.982;2023-08-20T08:14:32;8.93;;;7.07;;
71046;SDS011;58703;48.978;8.982;2023-08-20T08:16:57;9.88;;;7.40;;
71046;SDS011;58703;48.978;8.982;2023-08-20T08:19:23;8.43;;;7.13;;
71046;SDS011;58703;48.978;8.982;2023-08-20T08:21:48;9.27;;;6.38;;
71046;SDS011;58703;48.978;8.982;2023-08-20T08:24:14;9.73;;;6.83;;
71046;SDS011;58703;48.978;8.982;2023-08-20T08:26:40;8.10;;;6.63;;
71046;SDS011;58703;48.978;8.982;2023-08-20T08:29:07;7.77;;;5.80;;
71046;SDS011;58703;48.978;8.982;2023-08-20T08:31:33;8.20;;;6.72;;
71046;SDS011;58703;48.978;8.982;2023-08-20T08:33:59;7.95;;;6.03;;
71046;SDS011;58703;48.978;8.982;2023-08-20T08:36:25;8.93;;;6.77;;
71046;SDS011;58703;48.978;8.982;2023-08-20T08:38:51;10.20;;;6.90;;
71046;SDS011;58703;48.978;8.982;2023-08-20T08:41:17;9.15;;;6.90;;
71046;SDS011;58703;48.978;8.982;2023-08-20T08:43:46;9.97;;;6.60;;
71046;SDS011;58703;48.978;8.982;2023-08-20T08:46:13;7.72;;;6.90;;
71046;SDS011;58703;48.978;8.982;2023-08-20T08:48:43;9.50;;;6.72;;
71046;SDS011;58703;48.978;8.982;2023-08-20T08:51:09;8.20;;;7.13;;
71046;SDS011;58703;48.978;8.982;2023-08-20T08:53:35;8.93;;;6.90;;
71046;SDS011;58703;48.978;8.982;2023-08-20T08:56:01;11.10;;;7.30;;
71046;SDS011;58703;48.978;8.982;2023-08-20T08:58:28;7.50;;;6.38;;
71046;SDS011;58703;48.978;8.982;2023-08-20T09:00:53;7.90;;;6.67;;
71046;SDS011;58703;48.978;8.982;2023-08-20T09:03:19;8.07;;;6.40;;
71046;SDS011;58703;48.978;8.982;2023-08-20T09:05:48;7.00;;;6.07;;
71046;SDS011;58703;48.978;8.982;2023-08-20T09:08:21;6.88;;;6.18;;
71046;SDS011;58703;48.978;8.982;2023-08-20T09:10:55;7.00;;;6.05;;
71046;SDS011;58703;48.978;8.982;2023-08-20T09:13:26;7.85;;;6.40;;
71046;SDS011;58703;48.978;8.982;2023-08-20T09:16:12;8.52;;;6.50;;
71046;SDS011;58703;48.978;8.982;2023-08-20T09:18:38;10.17;;;6.97;;
71046;SDS011;58703;48.978;8.982;2023-08-20T09:21:08;10.38;;;6.93;;
71046;SDS011;58703;48.978;8.982;2023-08-20T09:23:35;7.60;;;6.90;;
71046;SDS011;58703;48.978;8.982;2023-08-20T09:26:01;11.90;;;6.72;;
71046;SDS011;58703;48.978;8.982;2023-08-20T09:28:28;9.88;;;7.03;;
71046;SDS011;58703;48.978;8.982;2023-08-20T09:30:54;7.30;;;6.50;;
71046;SDS011;58703;48.978;8.982;2023-08-20T09:33:23;8.15;;;6.60;;
71046;SDS011;58703;48.978;8.982;2023-08-20T09:35:50;9.03;;;6.63;;
71046;SDS011;58703;48.978;8.982;2023-08-20T09:38:18;6.90;;;6.00;;
71046;SDS011;58703;48.978;8.982;2023-08-20T09:40:50;7.57;;;6.18;;
71046;SDS011;58703;48.978;8.982;2023-08-20T09:43:21;8.57;;;6.70;;
71046;SDS011;58703;48.978;8.982;2023-08-20T09:45:51;11.60;;;7.07;;
71046;SDS011;58703;48.978;8.982;2023-08-20T09:48:19;10.60;;;6.43;;
71046;SDS011;58703;48.978;8.982;2023-08-20T09:50:49;6.53;;;5.70;;
71046;SDS011;58703;48.978;8.982;2023-08-20T09:53:21;7.22;;;6.03;;
71046;SDS011;58703;48.978;8.982;2023-08-20T09:55:51;9.40;;;6.47;;
71046;SDS011;58703;48.978;8.982;2023-08-20T09:58:19;8.48;;;5.93;;
71046;SDS011;58703;48.978;8.982;2023-08-20T10:00:50;6.63;;;6.03;;
71046;SDS011;58703;48.978;8.982;2023-08-20T10:03:17;6.43;;;5.35;;
71046;SDS011;58703;48.978;8.982;2023-08-20T10:05:48;7.40;;;5.80;;
71046;SDS011;58703;48.978;8.982;2023-08-20T10:08:15;6.47;;;5.20;;
71046;SDS011;58703;48.978;8.982;2023-08-20T10:10:41;8.37;;;5.77;;
71046;SDS011;58703;48.978;8.982;2023-08-20T10:13:06;6.68;;;5.60;;
71046;SDS011;58703;48.978;8.982;2023-08-20T10:15:33;8.30;;;5.75;;
71046;SDS011;58703;48.978;8.982;2023-08-20T10:18:02;7.22;;;5.35;;
71046;SDS011;58703;48.978;8.982;2023-08-20T10:20:30;5.65;;;5.15;;
71046;SDS011;58703;48.978;8.982;2023-08-20T10:23:00;6.53;;;4.95;;
71046;SDS011;58703;48.978;8.982;2023-08-20T10:25:29;7.03;;;5.60;;
71046;SDS011;58703;48.978;8.982;2023-08-20T10:28:10;5.67;;;4.77;;
71046;SDS011;58703;48.978;8.982;2023-08-20T10:33:35;5.32;;;4.38;;
71046;SDS011;58703;48.978;8.982;2023-08-20T10:36:18;7.75;;;4.78;;
71046;SDS011;58703;48.978;8.982;2023-08-20T10:38:51;7.45;;;4.75;;
71046;SDS011;58703;48.978;8.982;2023-08-20T10:41:27;6.77;;;4.50;;
71046;SDS011;58703;48.978;8.982;2023-08-20T10:43:57;7.18;;;4.70;;
71046;SDS011;58703;48.978;8.982;2023-08-20T10:46:23;6.65;;;4.90;;
71046;SDS011;58703;48.978;8.982;2023-08-20T10:48:54;10.20;;;4.88;;
71046;SDS011;58703;48.978;8.982;2023-08-20T10:51:35;7.72;;;4.72;;
71046;SDS011;58703;48.978;8.982;2023-08-20T10:54:03;7.33;;;4.37;;
71046;SDS011;58703;48.978;8.982;2023-08-20T10:56:47;5.70;;;4.10;;
71046;SDS011;58703;48.978;8.982;2023-08-20T10:59:14;6.20;;;4.70;;
71046;SDS011;58703;48.978;8.982;2023-08-20T11:01:48;5.88;;;4.40;;
71046;SDS011;58703;48.978;8.982;2023-08-20T11:04:15;5.65;;;5.05;;
71046;SDS011;58703;48.978;8.982;2023-08-20T11:06:42;8.03;;;4.80;;
71046;SDS011;58703;48.978;8.982;2023-08-20T11:09:08;6.10;;;4.65;;
71046;SDS011;58703;48.978;8.982;2023-08-20T11:11:37;5.00;;;4.50;;
71046;SDS011;58703;48.978;8.982;2023-08-20T11:14:11;9.40;;;4.47;;
71046;SDS011;58703;48.978;8.982;2023-08-20T11:16:44;8.68;;;4.97;;
71046;SDS011;58703;48.978;8.982;2023-08-20T11:19:10;5.60;;;4.43;;
71046;SDS011;58703;48.978;8.982;2023-08-20T11:21:39;6.93;;;4.68;;
71046;SDS011;58703;48.978;8.982;2023-08-20T11:24:06;6.78;;;4.63;;
71046;SDS011;58703;48.978;8.982;2023-08-20T11:26:33;4.93;;;4.45;;
71046;SDS011;58703;48.978;8.982;2023-08-20T11:29:06;5.77;;;4.23;;
71046;SDS011;58703;48.978;8.982;2023-08-20T11:31:35;6.25;;;4.47;;
71046;SDS011;58703;48.978;8.982;2023-08-20T11:34:02;4.40;;;4.00;;
71046;SDS011;58703;48.978;8.982;2023-08-20T11:36:28;5.43;;;4.40;;
71046;SDS011;58703;48.978;8.982;2023-08-20T11:38:54;6.93;;;5.13;;
71046;SDS011;58703;48.978;8.982;2023-08-20T11:41:23;7.65;;;5.15;;
71046;SDS011;58703;48.978;8.982;2023-08-20T11:43:50;5.95;;;4.13;;
71046;SDS011;58703;48.978;8.982;2023-08-20T11:46:20;6.00;;;4.32;;
71046;SDS011;58703;48.978;8.982;2023-08-20T11:49:03;8.07;;;4.10;;
71046;SDS011;58703;48.978;8.982;2023-08-20T11:54:04;5.93;;;4.30;;
71046;SDS011;58703;48.978;8.982;2023-08-20T11:56:32;7.78;;;4.63;;
71046;SDS011;58703;48.978;8.982;2023-08-20T11:59:01;6.40;;;3.92;;
71046;SDS011;58703;48.978;8.982;2023-08-20T12:01:31;5.30;;;4.07;;
71046;SDS011;58703;48.978;8.982;2023-08-20T12:04:00;5.28;;;3.88;;
71046;SDS011;58703;48.978;8.982;2023-08-20T12:06:29;7.40;;;4.50;;
71046;SDS011;58703;48.978;8.982;2023-08-20T12:08:56;5.35;;;3.88;;
71046;SDS011;58703;48.978;8.982;2023-08-20T12:11:23;4.78;;;3.85;;
71046;SDS011;58703;48.978;8.982;2023-08-20T12:13:50;6.53;;;4.35;;
71046;SDS011;58703;48.978;8.982;2023-08-20T12:16:16;4.97;;;3.88;;
71046;SDS011;58703;48.978;8.982;2023-08-20T12:18:41;7.13;;;4.43;;
71046;SDS011;58703;48.978;8.982;2023-08-20T12:21:07;6.50;;;3.77;;
71046;SDS011;58703;48.978;8.982;2023-08-20T12:23:32;7.03;;;4.20;;
71046;SDS011;58703;48.978;8.982;2023-08-20T12:25:58;4.73;;;3.80;;
71046;SDS011;58703;48.978;8.982;2023-08-20T12:28:24;4.43;;;3.95;;
71046;SDS011;58703;48.978;8.982;2023-08-20T12:30:51;5.47;;;4.13;;
71046;SDS011;58703;48.978;8.982;2023-08-20T12:33:17;5.03;;;3.80;;
71046;SDS011;58703;48.978;8.982;2023-08-20T12:35:42;5.17;;;4.20;;
71046;SDS011;58703;48.978;8.982;2023-08-20T12:38:08;7.13;;;3.95;;
71046;SDS011;58703;48.978;8.982;2023-08-20T12:40:34;7.33;;;3.67;;
71046;SDS011;58703;48.978;8.982;2023-08-20T12:42:59;6.47;;;4.47;;
71046;SDS011;58703;48.978;8.982;2023-08-20T12:45:25;6.00;;;3.90;;
71046;SDS011;58703;48.978;8.982;2023-08-20T12:47:50;4.43;;;4.03;;
71046;SDS011;58703;48.978;8.982;2023-08-20T12:50:16;9.40;;;4.00;;
71046;SDS011;58703;48.978;8.982;2023-08-20T12:52:41;4.95;;;4.13;;
71046;SDS011;58703;48.978;8.982;2023-08-20T12:55:08;5.25;;;4.00;;
71046;SDS011;58703;48.978;8.982;2023-08-20T12:57:34;7.50;;;3.80;;
71046;SDS011;58703;48.978;8.982;2023-08-20T13:00:00;4.63;;;3.92;;
71046;SDS011;58703;48.978;8.982;2023-08-20T13:02:27;7.00;;;4.00;;
71046;SDS011;58703;48.978;8.982;2023-08-20T13:04:52;6.83;;;4.53;;
71046;SDS011;58703;48.978;8.982;2023-08-20T13:07:18;5.80;;;4.13;;
71046;SDS011;58703;48.978;8.982;2023-08-20T13:09:44;5.38;;;4.45;;
71046;SDS011;58703;48.978;8.982;2023-08-20T13:12:10;4.63;;;3.77;;
71046;SDS011;58703;48.978;8.982;2023-08-20T13:14:40;5.68;;;4.05;;
71046;SDS011;58703;48.978;8.982;2023-08-20T13:17:07;6.65;;;4.05;;
71046;SDS011;58703;48.978;8.982;2023-08-20T13:19:33;7.60;;;4.07;;
71046;SDS011;58703;48.978;8.982;2023-08-20T13:21:58;5.37;;;3.83;;
71046;SDS011;58703;48.978;8.982;2023-08-20T13:24:24;6.30;;;3.57;;
71046;SDS011;58703;48.978;8.982;2023-08-20T13:26:50;6.18;;;3.70;;
71046;SDS011;58703;48.978;8.982;2023-08-20T13:29:16;9.88;;;3.90;;
71046;SDS011;58703;48.978;8.982;2023-08-20T13:31:41;6.90;;;3.83;;
71046;SDS011;58703;48.978;8.982;2023-08-20T13:34:07;7.33;;;4.07;;
71046;SDS011;58703;48.978;8.982;2023-08-20T13:36:33;6.65;;;3.70;;
71046;SDS011;58703;48.978;8.982;2023-08-20T13:38:58;5.68;;;3.80;;
71046;SDS011;58703;48.978;8.982;2023-08-20T13:41:24;6.10;;;3.53;;
71046;SDS011;58703;48.978;8.982;2023-08-20T13:43:50;6.93;;;3.92;;
71046;SDS011;58703;48.978;8.982;2023-08-20T13:46:15;5.87;;;3.33;;
71046;SDS011;58703;48.978;8.982;2023-08-20T13:48:41;5.97;;;3.80;;
71046;SDS011;58703;48.978;8.982;2023-08-20T13:51:06;4.75;;;3.65;;
71046;SDS011;58703;48.978;8.982;2023-08-20T13:53:32;7.43;;;3.90;;
71046;SDS011;58703;48.978;8.982;2023-08-20T13:55:57;5.03;;;3.60;;
71046;SDS011;58703;48.978;8.982;2023-08-20T13:58:23;7.77;;;3.90;;
71046;SDS011;58703;48.978;8.982;2023-08-20T14:00:48;5.97;;;4.10;;
71046;SDS011;58703;48.978;8.982;2023-08-20T14:03:14;7.15;;;3.80;;
71046;SDS011;58703;48.978;8.982;2023-08-20T14:05:39;7.53;;;3.73;;
71046;SDS011;58703;48.978;8.982;2023-08-20T14:08:05;8.37;;;3.80;;
71046;SDS011;58703;48.978;8.982;2023-08-20T14:10:31;4.75;;;3.83;;
71046;SDS011;58703;48.978;8.982;2023-08-20T14:12:56;6.37;;;4.00;;
71046;SDS011;58703;48.978;8.982;2023-08-20T14:15:22;6.37;;;3.30;;
71046;SDS011;58703;48.978;8.982;2023-08-20T14:17:47;4.50;;;3.58;;
71046;SDS011;58703;48.978;8.982;2023-08-20T14:20:13;5.77;;;4.20;;
71046;SDS011;58703;48.978;8.982;2023-08-20T14:22:39;5.68;;;4.13;;
71046;SDS011;58703;48.978;8.982;2023-08-20T14:25:05;7.63;;;3.80;;
71046;SDS011;58703;48.978;8.982;2023-08-20T14:27:30;5.40;;;3.60;;
71046;SDS011;58703;48.978;8.982;2023-08-20T14:29:56;5.37;;;4.10;;
71046;SDS011;58703;48.978;8.982;2023-08-20T14:32:21;4.35;;;3.80;;
71046;SDS011;58703;48.978;8.982;2023-08-20T14:34:47;6.30;;;3.37;;
71046;SDS011;58703;48.978;8.982;2023-08-20T14:37:13;7.10;;;4.00;;
71046;SDS011;58703;48.978;8.982;2023-08-20T14:39:38;5.13;;;3.30;;
71046;SDS011;58703;48.978;8.982;2023-08-20T14:42:04;5.20;;;3.20;;
71046;SDS011;58703;48.978;8.982;2023-08-20T14:44:30;5.53;;;3.35;;
71046;SDS011;58703;48.978;8.982;2023-08-20T14:46:56;6.20;;;3.40;;
71046;SDS011;58703;48.978;8.982;2023-08-20T14:49:21;7.03;;;3.70;;
71046;SDS011;58703;48.978;8.982;2023-08-20T14:51:48;4.37;;;3.30;;